Time;durP1;ratioP1;P1;durP2;ratioP2;P2;SDS_P1;SDS_P2;PMS_P1;PMS_P2;Temp;Humidity;BMP_temperature;BMP_pressure;BME280_temperature;BME280_humidity;BME280_pressure;Samples;Min_cycle;Max_cycle;Signal;HPM_P1;HPM_P2
2023/01/25 00:00:08;;;;;;;65.85;56.42;;;14.50;59.60;;;;;;4942043;28;93015;-46
2023/01/25 00:02:33;;;;;;;67.25;56.42;;;14.50;59.70;;;;;;4938992;28;92791;-52
2023/01/25 00:04:59;;;;;;;65.72;55.92;;;14.50;59.40;;;;;;4943012;28;90986;-52
2023/01/25 00:07:25;;;;;;;66.65;56.67;;;14.50;59.50;;;;;;4939941;28;90612;-53
2023/01/25 00:09:50;;;;;;;67.22;56.65;;;14.50;59.40;;;;;;4935223;28;91394;-54
2023/01/25 00:12:16;;;;;;;67.22;56.65;;;14.50;59.40;;;;;;4935808;28;93264;-49
2023/01/25 00:14:42;;;;;;;69.05;56.67;;;14.50;59.50;;;;;;4940562;28;91607;-50
2023/01/25 00:17:07;;;;;;;66.57;56.63;;;14.50;59.40;;;;;;4935615;28;93899;-51
2023/01/25 00:19:33;;;;;;;67.88;57.13;;;14.50;59.50;;;;;;4930406;28;92420;-51
2023/01/25 00:21:58;;;;;;;66.93;56.65;;;14.50;59.50;;;;;;4937691;28;90255;-49
2023/01/25 00:24:25;;;;;;;68.28;57.30;;;14.40;59.40;;;;;;4939941;28;92656;-52
2023/01/25 00:26:50;;;;;;;68.00;57.15;;;14.40;59.40;;;;;;4943996;28;92220;-52
2023/01/25 00:29:16;;;;;;;67.32;57.33;;;14.40;59.30;;;;;;4936884;28;89476;-51
2023/01/25 00:31:57;;;;;;;66.90;56.63;;;14.40;59.40;;;;;;4947553;28;91311;-52
2023/01/25 00:34:42;;;;;;;66.80;56.50;;;14.40;59.40;;;;;;4940508;28;91504;-50
2023/01/25 00:37:16;;;;;;;67.50;57.45;;;14.40;59.10;;;;;;4936356;28;91705;-49
2023/01/25 00:39:42;;;;;;;67.35;57.22;;;14.40;59.20;;;;;;4938996;28;90754;-49
2023/01/25 00:42:13;;;;;;;67.55;56.97;;;14.40;59.30;;;;;;4936696;28;92246;-51
2023/01/25 00:44:39;;;;;;;67.03;56.63;;;14.40;59.40;;;;;;4946497;28;91323;-44
2023/01/25 00:47:05;;;;;;;66.70;56.83;;;14.40;59.50;;;;;;4937860;28;96730;-48
2023/01/25 00:49:32;;;;;;;68.40;56.83;;;14.40;59.40;;;;;;4941437;28;94237;-46
2023/01/25 00:51:58;;;;;;;65.82;56.72;;;14.40;59.20;;;;;;4942430;28;91165;-50
2023/01/25 00:54:24;;;;;;;68.07;57.35;;;14.40;59.20;;;;;;4943541;28;90016;-51
2023/01/25 00:56:55;;;;;;;67.03;56.47;;;14.40;59.20;;;;;;4936519;28;92849;-47
2023/01/25 00:59:21;;;;;;;67.70;56.58;;;14.50;59.00;;;;;;4932833;28;90369;-52
2023/01/25 01:01:47;;;;;;;68.10;56.47;;;14.50;58.90;;;;;;4944566;28;90963;-50
2023/01/25 01:04:13;;;;;;;69.82;57.10;;;14.50;59.70;;;;;;4930631;28;92185;-49
2023/01/25 01:06:39;;;;;;;67.45;57.17;;;14.40;58.90;;;;;;4927387;28;92440;-53
2023/01/25 01:09:06;;;;;;;68.32;56.65;;;14.40;58.90;;;;;;4936183;28;90267;-49
2023/01/25 01:11:32;;;;;;;68.40;57.90;;;14.50;58.70;;;;;;4941735;28;91998;-49
2023/01/25 01:13:58;;;;;;;70.70;58.28;;;14.40;58.70;;;;;;4944731;28;90239;-51
2023/01/25 01:16:24;;;;;;;65.95;56.17;;;14.40;58.80;;;;;;4935505;28;90927;-51
2023/01/25 01:18:51;;;;;;;67.78;57.33;;;14.40;58.70;;;;;;4936101;28;91582;-52
2023/01/25 01:21:16;;;;;;;67.43;57.42;;;14.40;58.90;;;;;;4933967;28;94195;-50
2023/01/25 01:23:42;;;;;;;68.65;57.95;;;14.40;58.90;;;;;;4946157;28;92049;-50
2023/01/25 01:26:11;;;;;;;69.10;58.35;;;14.40;59.00;;;;;;4939505;28;93394;-52
2023/01/25 01:28:40;;;;;;;69.95;58.20;;;14.30;58.90;;;;;;4940898;28;90837;-49
2023/01/25 01:31:12;;;;;;;67.43;56.72;;;14.30;58.80;;;;;;4942866;28;90395;-45
2023/01/25 01:33:38;;;;;;;69.65;57.63;;;14.20;59.00;;;;;;4939823;28;91071;-51
2023/01/25 01:36:14;;;;;;;68.93;58.45;;;14.20;59.50;;;;;;4936246;28;92792;-49
2023/01/25 01:38:41;;;;;;;69.95;58.38;;;14.30;59.00;;;;;;4929137;28;96069;-51
2023/01/25 01:41:08;;;;;;;68.30;57.55;;;14.20;59.40;;;;;;4929971;28;91186;-52
2023/01/25 01:43:34;;;;;;;69.95;58.33;;;14.30;58.60;;;;;;4945388;28;90690;-49
2023/01/25 01:46:08;;;;;;;69.13;58.17;;;14.30;58.60;;;;;;4947490;28;93446;-51
2023/01/25 01:48:42;;;;;;;69.65;58.10;;;14.20;58.70;;;;;;4941978;28;90143;-52
2023/01/25 01:51:44;;;;;;;68.53;57.58;;;14.20;58.70;;;;;;4953293;28;92075;-50
2023/01/25 01:54:31;;;;;;;67.90;57.75;;;14.20;58.90;;;;;;4931514;28;91628;-47
2023/01/25 01:56:59;;;;;;;68.82;57.28;;;14.20;58.70;;;;;;4945112;28;89984;-48
2023/01/25 01:59:30;;;;;;;70.13;58.58;;;14.20;58.80;;;;;;4943142;28;90792;-47
2023/01/25 02:01:56;;;;;;;70.22;58.95;;;14.20;58.80;;;;;;4931028;28;90941;-52
2023/01/25 02:04:24;;;;;;;69.18;58.72;;;14.10;58.90;;;;;;4943795;28;90979;-47
2023/01/25 02:06:57;;;;;;;68.68;57.55;;;14.20;58.90;;;;;;4929979;28;90077;-46
2023/01/25 02:09:24;;;;;;;69.68;57.83;;;14.20;58.70;;;;;;4932537;28;90595;-50
2023/01/25 02:11:51;;;;;;;67.90;57.42;;;14.20;58.60;;;;;;4942014;28;94324;-46
2023/01/25 02:14:18;;;;;;;68.20;57.25;;;14.10;58.70;;;;;;4941457;28;91074;-52
2023/01/25 02:16:44;;;;;;;70.07;58.58;;;14.10;59.00;;;;;;4932688;28;91674;-53
2023/01/25 02:19:16;;;;;;;67.55;57.47;;;14.00;58.80;;;;;;4940630;28;94207;-52
2023/01/25 02:21:44;;;;;;;70.25;58.20;;;14.00;59.00;;;;;;4943214;28;91633;-50
2023/01/25 02:24:20;;;;;;;69.95;58.45;;;14.00;58.80;;;;;;4941716;28;91608;-50
2023/01/25 02:26:45;;;;;;;69.25;58.40;;;14.00;58.50;;;;;;4927604;28;90141;-50
2023/01/25 02:29:12;;;;;;;70.00;58.28;;;14.10;58.60;;;;;;4945598;28;92695;-49
2023/01/25 02:31:38;;;;;;;68.68;58.05;;;14.10;58.60;;;;;;4933658;28;91532;-49
2023/01/25 02:34:03;;;;;;;68.07;58.05;;;14.10;58.30;;;;;;4933307;28;94498;-51
2023/01/25 02:36:33;;;;;;;70.60;58.47;;;14.00;58.40;;;;;;4932526;28;92136;-49
2023/01/25 02:39:06;;;;;;;70.28;58.58;;;14.00;58.40;;;;;;4917423;28;95021;-54
2023/01/25 02:41:36;;;;;;;67.72;57.70;;;14.00;58.60;;;;;;4940270;28;92122;-52
2023/01/25 02:44:05;;;;;;;68.63;58.65;;;14.00;58.60;;;;;;4940757;28;90140;-49
2023/01/25 02:46:34;;;;;;;70.78;59.25;;;14.00;58.60;;;;;;4927801;28;90961;-51
2023/01/25 02:49:01;;;;;;;69.55;59.05;;;14.00;58.50;;;;;;4943154;28;91265;-51
2023/01/25 02:51:29;;;;;;;69.68;58.38;;;14.00;58.30;;;;;;4940290;28;91321;-45
2023/01/25 02:53:55;;;;;;;70.78;59.20;;;14.00;58.40;;;;;;4953939;28;91496;-47
2023/01/25 02:56:22;;;;;;;69.75;58.28;;;14.00;58.40;;;;;;4943977;28;91364;-49
2023/01/25 02:58:47;;;;;;;70.63;58.67;;;14.00;58.40;;;;;;4935362;28;89569;-53
2023/01/25 03:01:14;;;;;;;71.38;58.88;;;14.00;58.30;;;;;;4978876;28;91358;-52
2023/01/25 03:03:39;;;;;;;71.00;58.85;;;14.00;58.40;;;;;;4931893;28;91664;-51
2023/01/25 03:06:06;;;;;;;69.38;58.10;;;14.00;58.50;;;;;;4948690;28;91127;-50
2023/01/25 03:08:32;;;;;;;68.53;56.75;;;13.90;58.50;;;;;;4945256;28;91803;-46
2023/01/25 03:11:00;;;;;;;71.60;59.28;;;13.90;58.60;;;;;;4945054;28;91379;-48
2023/01/25 03:13:27;;;;;;;67.22;57.08;;;13.90;58.50;;;;;;4942293;28;90094;-49
2023/01/25 03:16:05;;;;;;;69.07;57.30;;;13.90;58.40;;;;;;4928198;28;90128;-48
2023/01/25 03:18:31;;;;;;;67.47;57.42;;;13.90;58.50;;;;;;4934027;28;91743;-47
2023/01/25 03:21:07;;;;;;;69.78;58.42;;;13.90;58.60;;;;;;4927796;28;91337;-49
2023/01/25 03:23:33;;;;;;;68.85;58.15;;;13.80;58.40;;;;;;4932095;28;92604;-48
2023/01/25 03:26:17;;;;;;;70.93;57.97;;;13.80;58.50;;;;;;4931267;28;91466;-47
2023/01/25 03:28:43;;;;;;;70.70;59.22;;;13.90;58.40;;;;;;4930589;28;91786;-48
2023/01/25 03:31:12;;;;;;;70.45;58.78;;;13.90;58.20;;;;;;4932820;28;93494;-49
2023/01/25 03:33:38;;;;;;;71.95;59.88;;;13.90;58.30;;;;;;4942977;28;94441;-49
2023/01/25 03:36:05;;;;;;;68.70;58.20;;;13.90;58.30;;;;;;4940615;28;90356;-47
2023/01/25 03:38:31;;;;;;;70.68;59.83;;;13.90;58.40;;;;;;4938433;28;92078;-49
2023/01/25 03:40:57;;;;;;;71.38;58.60;;;13.90;58.40;;;;;;4934214;28;91728;-51
2023/01/25 03:43:23;;;;;;;71.75;58.90;;;13.80;58.30;;;;;;4940899;28;91544;-50
2023/01/25 03:45:53;;;;;;;67.93;57.85;;;13.80;58.20;;;;;;4934094;28;92389;-48
2023/01/25 03:48:19;;;;;;;69.75;58.20;;;13.80;58.30;;;;;;4928813;28;92640;-50
2023/01/25 03:50:59;;;;;;;71.30;58.33;;;13.80;58.30;;;;;;4947703;28;91448;-49
2023/01/25 03:53:29;;;;;;;68.68;58.20;;;13.80;58.80;;;;;;4931011;28;92082;-49
2023/01/25 03:55:57;;;;;;;68.87;57.03;;;13.80;58.30;;;;;;4936677;28;93453;-49
2023/01/25 03:58:23;;;;;;;73.13;59.67;;;13.70;58.30;;;;;;4936457;28;93651;-50
2023/01/25 04:00:49;;;;;;;72.60;58.92;;;13.80;58.30;;;;;;4933850;28;94687;-48
2023/01/25 04:03:16;;;;;;;71.07;58.50;;;13.70;58.20;;;;;;4938481;28;90986;-52
2023/01/25 04:05:42;;;;;;;69.78;58.42;;;13.70;58.20;;;;;;4939095;28;91261;-49
2023/01/25 04:08:08;;;;;;;69.22;58.95;;;13.80;58.20;;;;;;4922098;28;93127;-53
2023/01/25 04:10:34;;;;;;;69.80;58.42;;;13.80;58.10;;;;;;4945383;28;90300;-53
2023/01/25 04:12:59;;;;;;;70.97;59.15;;;13.80;58.00;;;;;;4929629;28;92333;-48
2023/01/25 04:15:25;;;;;;;70.50;58.92;;;13.70;58.10;;;;;;4931956;28;92764;-48
2023/01/25 04:17:51;;;;;;;71.22;58.97;;;13.70;58.00;;;;;;4939249;28;91687;-44
2023/01/25 04:20:16;;;;;;;72.13;59.58;;;13.70;57.90;;;;;;4933919;28;91243;-51
2023/01/25 04:22:42;;;;;;;70.75;58.55;;;13.70;58.00;;;;;;4927455;28;90833;-47
2023/01/25 04:25:08;;;;;;;70.45;58.58;;;13.70;57.90;;;;;;4930987;28;90246;-52
2023/01/25 04:27:34;;;;;;;70.22;58.45;;;13.80;57.90;;;;;;4939070;28;90519;-49
2023/01/25 04:29:59;;;;;;;70.38;59.05;;;13.70;57.90;;;;;;4932987;28;91219;-51
2023/01/25 04:32:25;;;;;;;70.82;58.80;;;13.70;58.10;;;;;;4938894;28;90817;-50
2023/01/25 04:34:50;;;;;;;68.43;58.30;;;13.60;58.10;;;;;;4934904;28;90253;-46
2023/01/25 04:37:16;;;;;;;69.53;57.80;;;13.60;58.00;;;;;;4942603;28;91130;-53
2023/01/25 04:39:42;;;;;;;69.38;58.63;;;13.60;58.10;;;;;;4935700;28;93822;-53
2023/01/25 04:42:07;;;;;;;71.10;58.47;;;13.60;58.10;;;;;;4930176;28;94481;-49
2023/01/25 04:44:33;;;;;;;72.78;59.72;;;13.60;57.90;;;;;;4942499;28;91120;-51
2023/01/25 04:46:58;;;;;;;71.95;59.92;;;13.60;58.10;;;;;;4947169;28;93517;-54
2023/01/25 04:49:24;;;;;;;69.72;59.53;;;13.50;58.20;;;;;;4927965;28;91653;-52
2023/01/25 04:51:50;;;;;;;70.35;59.22;;;13.50;58.10;;;;;;4935678;28;95193;-44
2023/01/25 04:54:15;;;;;;;72.60;59.92;;;13.50;58.10;;;;;;4939585;28;90912;-49
2023/01/25 04:56:41;;;;;;;71.95;59.90;;;13.50;58.00;;;;;;4920544;28;92609;-50
2023/01/25 04:59:06;;;;;;;70.20;59.17;;;13.50;58.10;;;;;;4933157;28;95187;-53
2023/01/25 05:01:32;;;;;;;70.88;59.25;;;13.50;58.00;;;;;;4920032;28;91283;-53
2023/01/25 05:03:58;;;;;;;69.60;58.50;;;13.50;58.00;;;;;;4916092;28;92937;-50
2023/01/25 05:06:24;;;;;;;70.20;59.00;;;13.50;57.80;;;;;;4932519;28;102209;-52
2023/01/25 05:08:50;;;;;;;71.05;58.92;;;13.50;57.80;;;;;;4931474;28;92302;-46
2023/01/25 05:11:16;;;;;;;72.95;59.70;;;13.50;57.80;;;;;;4930382;28;92585;-50
2023/01/25 05:13:41;;;;;;;75.63;60.05;;;13.50;57.90;;;;;;4935379;28;91547;-49
2023/01/25 05:16:07;;;;;;;74.93;60.40;;;13.60;57.70;;;;;;4924056;28;91450;-47
2023/01/25 05:18:33;;;;;;;70.15;59.75;;;13.50;57.70;;;;;;4930362;28;90870;-49
2023/01/25 05:20:58;;;;;;;70.30;59.50;;;13.50;57.70;;;;;;4929777;28;94445;-48
2023/01/25 05:23:24;;;;;;;72.15;58.80;;;13.50;57.80;;;;;;4920449;28;96922;-50
2023/01/25 05:28:33;;;;;;;74.40;60.35;;;13.50;57.80;;;;;;4948189;28;90905;-51
2023/01/25 05:31:03;;;;;;;76.63;60.25;;;13.60;57.50;;;;;;4947659;28;91131;-52
2023/01/25 05:33:29;;;;;;;74.85;60.78;;;13.60;57.70;;;;;;4941713;28;91901;-48
2023/01/25 05:35:55;;;;;;;74.47;61.70;;;13.60;57.70;;;;;;4943029;28;90581;-49
2023/01/25 05:38:20;;;;;;;73.10;60.38;;;13.70;57.70;;;;;;4935211;28;92587;-52
2023/01/25 05:40:46;;;;;;;74.78;60.35;;;13.60;57.50;;;;;;4937867;28;91653;-49
2023/01/25 05:43:12;;;;;;;71.88;59.58;;;13.70;57.70;;;;;;4944617;28;93149;-49
2023/01/25 05:45:39;;;;;;;71.82;59.25;;;13.60;57.70;;;;;;4932735;28;92879;-43
2023/01/25 05:48:05;;;;;;;74.65;60.08;;;13.60;57.90;;;;;;4943475;28;91820;-50
2023/01/25 05:50:30;;;;;;;72.50;60.50;;;13.60;57.80;;;;;;4915261;28;92469;-49
2023/01/25 05:52:56;;;;;;;74.43;60.97;;;13.70;57.90;;;;;;4928634;28;91803;-52
2023/01/25 05:55:22;;;;;;;81.45;61.00;;;13.60;57.80;;;;;;4923276;28;92371;-44
2023/01/25 05:57:47;;;;;;;78.63;60.67;;;13.60;57.80;;;;;;4931736;28;93650;-49
2023/01/25 06:00:13;;;;;;;82.35;62.53;;;13.70;57.60;;;;;;4933350;28;95938;-51
2023/01/25 06:02:39;;;;;;;84.68;62.92;;;13.70;57.60;;;;;;4933014;28;91572;-47
2023/01/25 06:05:05;;;;;;;81.40;62.22;;;13.60;57.70;;;;;;4943473;28;90910;-51
2023/01/25 06:07:38;;;;;;;78.05;61.13;;;13.70;57.90;;;;;;4930510;28;93638;-49
2023/01/25 06:10:04;;;;;;;79.63;62.45;;;13.60;57.70;;;;;;4928083;28;91211;-51
2023/01/25 06:12:30;;;;;;;80.72;62.92;;;13.60;57.90;;;;;;4938598;28;92429;-46
2023/01/25 06:14:56;;;;;;;77.20;61.50;;;13.50;58.40;;;;;;4920018;28;90280;-47
2023/01/25 06:17:21;;;;;;;77.90;61.58;;;13.50;58.40;;;;;;4933078;28;91757;-53
2023/01/25 06:19:47;;;;;;;77.07;62.60;;;13.50;58.40;;;;;;4925712;28;89750;-51
2023/01/25 06:22:12;;;;;;;76.60;60.92;;;13.40;58.60;;;;;;4933243;28;92289;-52
2023/01/25 06:24:38;;;;;;;76.65;61.40;;;13.50;58.60;;;;;;4929274;28;90871;-49
2023/01/25 06:27:04;;;;;;;81.57;62.25;;;13.50;58.40;;;;;;4940653;28;90581;-51
2023/01/25 06:29:29;;;;;;;86.15;65.03;;;13.60;58.50;;;;;;4939377;28;92467;-54
2023/01/25 06:31:55;;;;;;;87.82;63.95;;;13.60;58.20;;;;;;4947018;28;91839;-54
2023/01/25 06:34:23;;;;;;;73.53;59.60;;;13.50;58.10;;;;;;4930354;28;91676;-53
2023/01/25 06:36:49;;;;;;;76.63;61.08;;;13.70;58.20;;;;;;4935235;28;91844;-46
2023/01/25 06:39:14;;;;;;;83.32;63.67;;;13.70;57.90;;;;;;4938299;28;91101;-47
2023/01/25 06:41:40;;;;;;;77.38;62.15;;;13.80;57.90;;;;;;4931441;28;96181;-52
2023/01/25 06:44:07;;;;;;;77.10;61.60;;;13.80;57.70;;;;;;4940445;28;94545;-43
2023/01/25 06:46:32;;;;;;;83.07;63.42;;;13.70;57.90;;;;;;4940489;28;92576;-52
2023/01/25 06:48:58;;;;;;;80.00;62.63;;;13.60;58.00;;;;;;4942327;28;95876;-52
2023/01/25 06:51:23;;;;;;;78.95;61.95;;;13.70;57.90;;;;;;4929906;28;89948;-46
2023/01/25 06:53:49;;;;;;;78.90;63.22;;;13.60;58.00;;;;;;4935720;28;94404;-51
2023/01/25 06:56:20;;;;;;;76.78;62.42;;;13.60;58.10;;;;;;4932285;28;91582;-52
2023/01/25 06:58:47;;;;;;;78.53;62.67;;;13.50;58.10;;;;;;4942523;28;94962;-49
2023/01/25 07:01:21;;;;;;;78.95;61.03;;;13.50;58.00;;;;;;4944331;28;90438;-49
2023/01/25 07:03:51;;;;;;;78.00;62.30;;;13.50;58.20;;;;;;4932148;28;93540;-50
2023/01/25 07:06:17;;;;;;;75.85;62.08;;;13.40;58.20;;;;;;4939529;28;92361;-50
2023/01/25 07:08:43;;;;;;;78.35;62.17;;;13.40;58.00;;;;;;4940188;28;90092;-51
2023/01/25 07:11:12;;;;;;;75.65;61.20;;;13.40;58.30;;;;;;4933983;28;91806;-51
2023/01/25 07:13:39;;;;;;;77.60;61.53;;;13.40;58.30;;;;;;4940189;28;90824;-53
2023/01/25 07:16:07;;;;;;;80.15;62.05;;;13.30;58.20;;;;;;4930969;28;93631;-48
2023/01/25 07:18:36;;;;;;;81.03;63.22;;;13.30;58.30;;;;;;4940133;28;91330;-52
2023/01/25 07:21:06;;;;;;;79.50;62.85;;;13.30;58.40;;;;;;4935846;28;93161;-46
2023/01/25 07:23:34;;;;;;;74.97;60.88;;;13.30;58.20;;;;;;4936599;28;91536;-50
2023/01/25 07:26:00;;;;;;;81.10;63.22;;;13.30;58.30;;;;;;4931883;28;95273;-49
2023/01/25 07:28:27;;;;;;;82.03;64.28;;;13.30;58.20;;;;;;4949023;28;91356;-48
2023/01/25 07:30:52;;;;;;;79.57;62.55;;;13.20;58.10;;;;;;4937854;28;91697;-51
2023/01/25 07:33:18;;;;;;;81.53;63.33;;;13.20;58.20;;;;;;4942838;28;90411;-47
2023/01/25 07:35:44;;;;;;;78.10;63.65;;;13.20;58.20;;;;;;4949252;28;92481;-50
2023/01/25 07:38:09;;;;;;;79.10;63.30;;;13.20;58.20;;;;;;4947799;28;91049;-51
2023/01/25 07:40:35;;;;;;;80.93;63.80;;;13.20;58.20;;;;;;4937717;28;93148;-51
2023/01/25 07:43:01;;;;;;;75.22;61.45;;;13.10;58.10;;;;;;4944698;28;89966;-49
2023/01/25 07:45:29;;;;;;;76.57;61.45;;;13.10;58.20;;;;;;4943899;28;92075;-48
2023/01/25 07:47:58;;;;;;;77.63;62.28;;;13.10;58.20;;;;;;4937102;28;91876;-54
2023/01/25 07:50:26;;;;;;;76.97;63.17;;;13.10;58.30;;;;;;4940085;28;94335;-48
2023/01/25 07:52:52;;;;;;;82.55;64.53;;;13.10;58.20;;;;;;4942798;28;89027;-46
2023/01/25 07:55:18;;;;;;;77.22;62.28;;;13.10;58.20;;;;;;4942618;28;90995;-45
2023/01/25 07:57:44;;;;;;;79.18;63.22;;;13.10;58.20;;;;;;4948646;28;91457;-47
2023/01/25 08:00:11;;;;;;;76.63;62.67;;;13.10;58.10;;;;;;4929877;28;92021;-51
2023/01/25 08:02:36;;;;;;;75.22;61.80;;;13.00;58.20;;;;;;4935361;28;94298;-48
2023/01/25 08:05:02;;;;;;;78.63;61.60;;;13.10;58.20;;;;;;4951794;28;91317;-48
2023/01/25 08:07:28;;;;;;;79.90;62.17;;;13.10;58.10;;;;;;4939298;28;96806;-48
2023/01/25 08:09:54;;;;;;;73.65;60.88;;;13.00;58.10;;;;;;4934359;28;92063;-43
2023/01/25 08:12:21;;;;;;;78.45;62.88;;;13.00;58.20;;;;;;4945527;28;93228;-47
2023/01/25 08:14:48;;;;;;;77.82;62.63;;;13.00;58.10;;;;;;4933014;28;91442;-51
2023/01/25 08:17:14;;;;;;;77.13;63.17;;;13.00;58.10;;;;;;4945237;28;89956;-47
2023/01/25 08:19:39;;;;;;;79.50;63.13;;;12.90;58.60;;;;;;4942672;28;90000;-50
2023/01/25 08:22:07;;;;;;;77.10;62.45;;;12.90;58.20;;;;;;4943452;28;94228;-49
2023/01/25 08:24:32;;;;;;;77.55;62.55;;;12.90;58.10;;;;;;4951288;28;92652;-49
2023/01/25 08:26:58;;;;;;;74.80;61.40;;;12.90;58.10;;;;;;4932797;28;91664;-50
2023/01/25 08:29:26;;;;;;;74.28;61.40;;;12.90;58.10;;;;;;4940004;28;90769;-50
2023/01/25 08:31:52;;;;;;;76.82;61.70;;;13.00;58.10;;;;;;4945376;28;90001;-48
2023/01/25 08:34:18;;;;;;;75.43;62.25;;;13.00;58.60;;;;;;4935711;28;92904;-51
2023/01/25 08:36:43;;;;;;;73.07;60.45;;;13.00;58.00;;;;;;4924848;28;93174;-47
2023/01/25 08:39:10;;;;;;;78.45;62.72;;;13.00;57.90;;;;;;4934039;28;90605;-49
2023/01/25 08:41:36;;;;;;;75.13;62.45;;;13.10;57.70;;;;;;4934762;28;89396;-53
2023/01/25 08:44:02;;;;;;;75.20;61.17;;;13.00;57.50;;;;;;4939096;28;90257;-50
2023/01/25 08:46:30;;;;;;;79.32;63.78;;;13.00;57.40;;;;;;4937078;28;92969;-46
2023/01/25 08:48:56;;;;;;;80.57;63.67;;;12.90;57.70;;;;;;4938032;28;95133;-48
2023/01/25 08:51:23;;;;;;;206.48;130.18;;;13.00;57.90;;;;;;4932173;28;90657;-52
2023/01/25 08:53:49;;;;;;;211.43;133.05;;;12.80;58.10;;;;;;4934880;28;92219;-48
2023/01/25 08:56:16;;;;;;;189.35;123.00;;;12.70;58.70;;;;;;4943145;28;91818;-51
2023/01/25 08:58:48;;;;;;;174.60;113.72;;;12.80;58.70;;;;;;4947176;28;90509;-50
2023/01/25 09:01:15;;;;;;;165.85;111.03;;;12.80;58.50;;;;;;4933961;28;92969;-50
2023/01/25 09:03:47;;;;;;;157.57;107.63;;;13.00;58.40;;;;;;4931846;28;92594;-46
2023/01/25 09:06:13;;;;;;;149.88;104.22;;;13.10;58.10;;;;;;4938404;28;91754;-50
2023/01/25 09:08:39;;;;;;;147.48;103.82;;;13.30;58.00;;;;;;4928806;28;92063;-52
2023/01/25 09:11:10;;;;;;;153.27;104.22;;;13.40;57.70;;;;;;4940125;28;92585;-50
2023/01/25 09:13:36;;;;;;;141.57;97.68;;;13.50;57.40;;;;;;4936728;28;95017;-51
2023/01/25 09:16:08;;;;;;;132.32;94.05;;;13.50;57.40;;;;;;4943291;28;90781;-49
2023/01/25 09:18:36;;;;;;;134.00;93.50;;;13.50;57.50;;;;;;4945761;28;91821;-51
2023/01/25 09:21:09;;;;;;;136.40;93.55;;;13.60;57.40;;;;;;4948726;28;91677;-49
2023/01/25 09:23:35;;;;;;;129.02;91.35;;;13.60;57.20;;;;;;4930832;28;90121;-48
2023/01/25 09:26:01;;;;;;;124.00;89.13;;;13.60;57.40;;;;;;4932974;28;94138;-50
2023/01/25 09:28:31;;;;;;;123.25;86.80;;;13.60;57.10;;;;;;4950773;28;90416;-53
2023/01/25 09:30:59;;;;;;;121.35;87.65;;;13.60;57.10;;;;;;4939180;28;95441;-53
2023/01/25 09:33:33;;;;;;;115.45;84.63;;;13.60;57.10;;;;;;4942290;28;92045;-51
2023/01/25 09:36:00;;;;;;;111.60;84.88;;;13.70;57.00;;;;;;4935873;28;91230;-47
2023/01/25 09:38:26;;;;;;;110.00;82.28;;;13.60;57.10;;;;;;4934278;28;93556;-54
2023/01/25 09:41:03;;;;;;;108.22;82.35;;;13.70;57.10;;;;;;4934622;28;89995;-49
2023/01/25 09:43:53;;;;;;;107.43;81.30;;;13.70;57.10;;;;;;4940138;28;93419;-52
2023/01/25 09:46:28;;;;;;;111.28;80.43;;;13.70;56.90;;;;;;4911620;28;91603;-50
2023/01/25 09:49:22;;;;;;;109.30;81.20;;;13.80;57.00;;;;;;4940918;28;91766;-54
2023/01/25 09:52:12;;;;;;;110.63;84.22;;;13.70;57.00;;;;;;4932810;28;91909;-54
2023/01/25 09:54:44;;;;;;;224.02;131.18;;;13.80;56.80;;;;;;4928532;28;92985;-53
2023/01/25 09:57:18;;;;;;;;;;;13.80;56.70;;;;;;4926559;28;94562;-54
2023/01/25 09:59:48;;;;;;;232.95;132.20;;;13.80;57.00;;;;;;4935026;28;90415;-48
2023/01/25 10:02:42;;;;;;;201.98;122.85;;;13.70;57.00;;;;;;4934685;28;95492;-52
2023/01/25 10:05:19;;;;;;;197.10;124.82;;;13.60;57.10;;;;;;4937766;28;96591;-46
2023/01/25 10:08:01;;;;;;;189.43;118.07;;;13.60;57.40;;;;;;4933471;28;92835;-52
2023/01/25 10:10:40;;;;;;;;;;;13.60;57.30;;;;;;4943245;28;89843;-52
2023/01/25 10:13:16;;;;;;;179.90;110.80;;;13.60;57.50;;;;;;4951198;28;94679;-46
2023/01/25 10:15:52;;;;;;;182.95;113.97;;;13.70;57.90;;;;;;4922260;28;96561;-49
2023/01/25 10:18:24;;;;;;;167.13;109.55;;;13.80;57.80;;;;;;4930375;28;92847;-49
2023/01/25 10:21:09;;;;;;;180.13;111.95;;;13.80;57.80;;;;;;4930557;28;91832;-50
2023/01/25 10:23:53;;;;;;;159.18;103.57;;;13.80;57.60;;;;;;4927652;28;91542;-51
2023/01/25 10:26:26;;;;;;;164.10;105.07;;;13.90;57.40;;;;;;4924408;28;95893;-53
2023/01/25 10:29:12;;;;;;;151.40;101.68;;;13.90;57.60;;;;;;4936986;28;92776;-52
2023/01/25 10:31:45;;;;;;;151.88;100.55;;;13.90;57.50;;;;;;4920368;28;92777;-52
2023/01/25 10:34:34;;;;;;;147.73;100.50;;;13.80;57.50;;;;;;4924437;28;99120;-51
2023/01/25 10:37:11;;;;;;;144.20;98.80;;;13.80;57.30;;;;;;4934767;28;91954;-48
2023/01/25 10:39:41;;;;;;;148.95;101.72;;;13.80;57.40;;;;;;4919607;28;90951;-66
2023/01/25 10:42:11;;;;;;;146.55;100.32;;;14.30;57.20;;;;;;4931719;28;91204;-51
2023/01/25 10:44:37;;;;;;;135.18;95.38;;;14.80;57.70;;;;;;4934928;28;91414;-49
2023/01/25 10:47:02;;;;;;;147.57;98.53;;;15.10;56.70;;;;;;4926856;28;98413;-55
2023/01/25 10:49:49;;;;;;;144.48;97.10;;;15.20;55.90;;;;;;4939596;28;91765;-50
2023/01/25 10:52:27;;;;;;;133.60;90.85;;;15.20;54.30;;;;;;4937338;28;89728;-53
2023/01/25 10:55:14;;;;;;;138.02;93.50;;;15.20;54.20;;;;;;4938086;28;95166;-48
2023/01/25 10:57:49;;;;;;;128.98;90.65;;;15.20;54.10;;;;;;4943077;28;91915;-50
2023/01/25 11:00:35;;;;;;;154.15;104.18;;;15.20;54.00;;;;;;4944058;28;93737;-51
2023/01/25 11:03:01;;;;;;;140.85;97.80;;;15.20;53.90;;;;;;4938841;28;91049;-54
2023/01/25 11:05:37;;;;;;;129.15;94.10;;;15.30;53.60;;;;;;4933324;28;92735;-47
2023/01/25 11:08:35;;;;;;;124.15;90.50;;;15.30;53.90;;;;;;4943401;28;94105;-53
2023/01/25 11:11:32;;;;;;;128.32;92.97;;;15.40;53.50;;;;;;4941104;28;91812;-45
2023/01/25 11:13:58;;;;;;;124.07;91.93;;;15.50;53.50;;;;;;4935945;28;90711;-48
2023/01/25 11:16:30;;;;;;;125.00;90.30;;;15.70;53.20;;;;;;4930941;28;91447;-48
2023/01/25 11:18:57;;;;;;;268.23;105.25;;;15.80;53.00;;;;;;4944459;28;90681;-50
2023/01/25 11:21:26;;;;;;;278.58;116.95;;;15.80;52.70;;;;;;4932344;28;93099;-48
2023/01/25 11:24:17;;;;;;;249.98;107.68;;;15.80;52.80;;;;;;4946086;28;92021;-58
2023/01/25 11:26:44;;;;;;;220.85;101.15;;;15.80;52.80;;;;;;4938237;28;90148;-50
2023/01/25 11:29:15;;;;;;;217.73;101.40;;;15.90;52.70;;;;;;4934253;28;93531;-48
2023/01/25 11:31:47;;;;;;;193.07;95.00;;;15.90;52.80;;;;;;4936095;28;91984;-52
2023/01/25 11:34:15;;;;;;;181.55;94.68;;;15.90;52.70;;;;;;4930628;28;91874;-47
2023/01/25 11:37:36;;;;;;;177.35;93.50;;;16.10;52.30;;;;;;4965555;28;91059;-51
2023/01/25 11:40:14;;;;;;;183.55;89.97;;;16.20;52.20;;;;;;4907002;28;90351;-56
2023/01/25 11:42:46;;;;;;;149.05;86.85;;;16.30;51.80;;;;;;4898869;28;92037;-50
2023/01/25 11:45:50;;;;;;;164.38;85.65;;;16.40;51.70;;;;;;4887469;28;91468;-55
2023/01/25 11:48:49;;;;;;;158.43;84.85;;;16.20;51.50;;;;;;4928169;28;94869;-51
2023/01/25 11:51:42;;;;;;;143.75;84.30;;;16.10;51.60;;;;;;4919878;28;96867;-56
2023/01/25 11:54:32;;;;;;;141.82;82.70;;;16.20;51.50;;;;;;4923979;28;91944;-53
2023/01/25 11:57:35;;;;;;;142.50;80.75;;;16.40;51.20;;;;;;4924127;28;91624;-53
2023/01/25 12:00:37;;;;;;;135.82;80.25;;;16.40;51.00;;;;;;4929152;28;92758;-47
2023/01/25 12:03:08;;;;;;;128.47;76.73;;;16.50;50.90;;;;;;4908233;28;95139;-51
2023/01/25 12:05:55;;;;;;;118.80;78.70;;;16.50;50.50;;;;;;4938912;28;93434;-51
2023/01/25 12:08:29;;;;;;;116.35;77.32;;;16.60;50.50;;;;;;4928188;28;90820;-51
2023/01/25 12:11:31;;;;;;;117.50;77.00;;;16.60;50.60;;;;;;4944443;28;89129;-55
2023/01/25 12:14:19;;;;;;;113.05;75.32;;;16.70;50.40;;;;;;4932826;28;91529;-55
2023/01/25 12:17:07;;;;;;;108.78;74.70;;;16.70;50.60;;;;;;4966074;28;93254;-53
2023/01/25 12:19:52;;;;;;;111.30;73.93;;;16.80;50.30;;;;;;4940546;28;96298;-51
2023/01/25 12:22:33;;;;;;;117.03;75.63;;;16.80;50.10;;;;;;4935605;28;91689;-54
2023/01/25 12:25:20;;;;;;;109.33;73.03;;;16.90;50.20;;;;;;4926917;28;96715;-48
2023/01/25 12:28:16;;;;;;;105.57;72.05;;;17.00;49.90;;;;;;4932468;28;91077;-52
2023/01/25 12:30:50;;;;;;;106.97;72.05;;;17.00;49.90;;;;;;4935482;28;90422;-53
2023/01/25 12:33:31;;;;;;;105.40;69.90;;;17.00;49.80;;;;;;4920142;28;90864;-49
2023/01/25 12:36:09;;;;;;;104.47;72.45;;;16.90;49.90;;;;;;4938019;28;93669;-53
2023/01/25 12:39:00;;;;;;;100.13;71.25;;;16.90;49.90;;;;;;4942893;28;91173;-53
2023/01/25 12:41:47;;;;;;;97.38;71.22;;;16.80;50.00;;;;;;4937176;28;93336;-50